sensor_id;sensor_type;location;lat;lon;timestamp;pressure;altitude;pressure_sealevel;temperature;humidity
77079;BME280;66004;55.096;38.760;2023-02-22T05:59:30;99149.88;;;-16.86;66.27
77079;BME280;66004;55.096;38.760;2023-02-22T06:01:55;99146.63;;;-16.81;66.73
77079;BME280;66004;55.096;38.760;2023-02-22T06:04:21;99152.91;;;-16.74;66.65
77079;BME280;66004;55.096;38.760;2023-02-22T06:06:46;99157.16;;;-16.65;65.77
77079;BME280;66004;55.096;38.760;2023-02-22T06:09:12;99157.44;;;-16.60;66.34
77079;BME280;66004;55.096;38.760;2023-02-22T06:11:37;99144.75;;;-16.66;65.83
77079;BME280;66004;55.096;38.760;2023-02-22T06:14:03;99134.75;;;-16.72;66.01
77079;BME280;66004;55.096;38.760;2023-02-22T06:16:28;99145.03;;;-16.61;65.85
77079;BME280;66004;55.096;38.760;2023-02-22T06:18:55;99157.91;;;-16.41;65.32
77079;BME280;66004;55.096;38.760;2023-02-22T06:21:21;99143.94;;;-16.30;65.25
77079;BME280;66004;55.096;38.760;2023-02-22T06:23:46;99164.38;;;-16.21;65.13
77079;BME280;66004;55.096;38.760;2023-02-22T06:26:15;99145.59;;;-16.29;65.16
77079;BME280;66004;55.096;38.760;2023-02-22T06:28:41;99163.09;;;-16.25;65.00
77079;BME280;66004;55.096;38.760;2023-02-22T06:31:07;99175.91;;;-16.27;65.13
77079;BME280;66004;55.096;38.760;2023-02-22T06:33:32;99167.53;;;-16.32;65.04
77079;BME280;66004;55.096;38.760;2023-02-22T06:35:58;99176.28;;;-16.30;65.32
77079;BME280;66004;55.096;38.760;2023-02-22T06:38:24;99183.31;;;-16.29;64.83
77079;BME280;66004;55.096;38.760;2023-02-22T06:40:50;99190.00;;;-16.25;64.71
77079;BME280;66004;55.096;38.760;2023-02-22T06:43:16;99183.41;;;-16.22;65.15
77079;BME280;66004;55.096;38.760;2023-02-22T06:45:42;99180.06;;;-16.24;64.73
77079;BME280;66004;55.096;38.760;2023-02-22T06:48:07;99195.00;;;-16.22;64.56
77079;BME280;66004;55.096;38.760;2023-02-22T06:50:33;99195.00;;;-16.22;64.71
77079;BME280;66004;55.096;38.760;2023-02-22T06:52:59;99195.66;;;-16.20;64.92
77079;BME280;66004;55.096;38.760;2023-02-22T06:55:29;99205.69;;;-16.14;64.94
77079;BME280;66004;55.096;38.760;2023-02-22T06:57:55;99191.59;;;-16.16;64.48
77079;BME280;66004;55.096;38.760;2023-02-22T07:00:23;99195.56;;;-16.12;64.51
77079;BME280;66004;55.096;38.760;2023-02-22T07:02:50;99174.31;;;-16.21;64.12
77079;BME280;66004;55.096;38.760;2023-02-22T07:05:17;99193.50;;;-16.10;64.03
77079;BME280;66004;55.096;38.760;2023-02-22T07:07:44;99181.00;;;-16.17;64.51
77079;BME280;66004;55.096;38.760;2023-02-22T07:10:19;99193.88;;;-16.13;64.06
77079;BME280;66004;55.096;38.760;2023-02-22T07:12:45;99204.00;;;-16.15;64.32
77079;BME280;66004;55.096;38.760;2023-02-22T07:15:10;99197.50;;;-16.20;64.41
77079;BME280;66004;55.096;38.760;2023-02-22T07:17:37;99222.09;;;-16.09;64.46
77079;BME280;66004;55.096;38.760;2023-02-22T07:20:06;99211.25;;;-16.15;64.32
77079;BME280;66004;55.096;38.760;2023-02-22T07:22:31;99220.81;;;-16.13;63.88
77079;BME280;66004;55.096;38.760;2023-02-22T07:24:57;99215.44;;;-16.13;64.18
77079;BME280;66004;55.096;38.760;2023-02-22T07:27:22;99228.41;;;-16.01;64.05
77079;BME280;66004;55.096;38.760;2023-02-22T07:29:48;99220.72;;;-16.04;63.83
77079;BME280;66004;55.096;38.760;2023-02-22T07:32:14;99232.66;;;-15.92;64.08
77079;BME280;66004;55.096;38.760;2023-02-22T07:34:40;99231.25;;;-15.88;63.41
77079;BME280;66004;55.096;38.760;2023-02-22T07:37:06;99240.75;;;-15.71;63.74
77079;BME280;66004;55.096;38.760;2023-02-22T07:39:31;99229.97;;;-15.71;63.25
77079;BME280;66004;55.096;38.760;2023-02-22T07:41:58;99238.97;;;-15.63;63.22
77079;BME280;66004;55.096;38.760;2023-02-22T07:44:24;99236.91;;;-15.61;63.40
77079;BME280;66004;55.096;38.760;2023-02-22T07:46:49;99247.59;;;-15.53;63.26
77079;BME280;66004;55.096;38.760;2023-02-22T07:49:15;99253.31;;;-15.41;63.20
77079;BME280;66004;55.096;38.760;2023-02-22T07:51:41;99250.16;;;-15.45;63.14
77079;BME280;66004;55.096;38.760;2023-02-22T07:54:06;99251.91;;;-15.37;62.83
77079;BME280;66004;55.096;38.760;2023-02-22T07:56:32;99252.22;;;-15.25;62.74
77079;BME280;66004;55.096;38.760;2023-02-22T07:58:57;99242.75;;;-15.21;62.37
77079;BME280;66004;55.096;38.760;2023-02-22T08:01:23;99246.31;;;-15.14;62.19
77079;BME280;66004;55.096;38.760;2023-02-22T08:03:49;99255.31;;;-15.07;62.14
77079;BME280;66004;55.096;38.760;2023-02-22T08:06:14;99255.94;;;-15.05;62.11
77079;BME280;66004;55.096;38.760;2023-02-22T08:08:40;99256.84;;;-14.98;62.11
77079;BME280;66004;55.096;38.760;2023-02-22T08:11:07;99253.13;;;-14.97;61.97
77079;BME280;66004;55.096;38.760;2023-02-22T08:13:32;99257.66;;;-14.97;61.77
77079;BME280;66004;55.096;38.760;2023-02-22T08:15:57;99266.47;;;-14.88;61.86
77079;BME280;66004;55.096;38.760;2023-02-22T08:18:23;99267.38;;;-14.81;62.08
77079;BME280;66004;55.096;38.760;2023-02-22T08:20:50;99267.38;;;-14.81;61.66
77079;BME280;66004;55.096;38.760;2023-02-22T08:23:17;99267.63;;;-14.76;61.51
77079;BME280;66004;55.096;38.760;2023-02-22T08:25:43;99253.69;;;-14.80;61.21
77079;BME280;66004;55.096;38.760;2023-02-22T08:28:14;99262.72;;;-14.66;61.82
77079;BME280;66004;55.096;38.760;2023-02-22T08:30:40;99247.56;;;-14.67;61.02
77079;BME280;66004;55.096;38.760;2023-02-22T08:33:10;99288.81;;;-14.45;61.07
77079;BME280;66004;55.096;38.760;2023-02-22T08:35:38;99298.63;;;-14.37;61.07
77079;BME280;66004;55.096;38.760;2023-02-22T08:38:05;99287.69;;;-14.29;61.09
77079;BME280;66004;55.096;38.760;2023-02-22T08:40:35;99299.78;;;-14.18;60.89
77079;BME280;66004;55.096;38.760;2023-02-22T08:43:01;99296.50;;;-14.14;60.49
77079;BME280;66004;55.096;38.760;2023-02-22T08:45:27;99309.63;;;-14.11;60.29
77079;BME280;66004;55.096;38.760;2023-02-22T08:47:53;99306.94;;;-14.11;60.04
